ADDS TAF Data INFO
IDs: Format: Raw Decoded Include METARs

Data at: 2034 UTC 23 May 2017

TAF AMD ETSI 231415Z 2314/2323 29008KT 9999 NSW FEW060 SCT150 BKN230 CANCEL 1520


Page loaded:  20:34 UTC  |   01:34 PM Pacific  |   02:34 PM Mountain  |   03:34 PM Central  |   04:34 PM Eastern

 

ADVISORIES

FORECASTS

FORECASTS

OBSERVATIONS

USER TOOLS

ABOUT US